Time;durP1;ratioP1;P1;durP2;ratioP2;P2;SDS_P1;SDS_P2;PMS_P1;PMS_P2;Temp;Humidity;BMP_temperature;BMP_pressure;BME280_temperature;BME280_humidity;BME280_pressure;Samples;Min_cycle;Max_cycle;Signal;HPM_P1;HPM_P2
2023/12/17 00:01:26;;;;;;;244.80;228.70;;;8.20;99.90;;;;;;12412698;28;20050;-78
2023/12/17 00:07:28;;;;;;;254.95;238.20;;;8.30;99.90;;;;;;12406927;28;21265;-78
2023/12/17 00:13:30;;;;;;;271.83;254.25;;;8.30;99.90;;;;;;12458755;28;20050;-80
2023/12/17 00:19:32;;;;;;;274.88;257.15;;;8.20;99.90;;;;;;12434727;28;20059;-78
2023/12/17 00:25:34;;;;;;;291.38;272.77;;;8.20;99.90;;;;;;12430488;28;20046;-79
2023/12/17 00:31:36;;;;;;;290.25;271.52;;;8.20;99.90;;;;;;12430374;28;20065;-79
2023/12/17 00:37:39;;;;;;;308.42;288.83;;;8.20;99.90;;;;;;12401932;28;20074;-82
2023/12/17 00:43:41;;;;;;;312.08;292.35;;;8.30;99.90;;;;;;12405107;28;20053;-78
2023/12/17 00:49:43;;;;;;;317.15;297.35;;;8.40;99.90;;;;;;12474362;28;20053;-77
2023/12/17 00:55:45;;;;;;;323.90;303.05;;;8.30;99.90;;;;;;12443709;28;20396;-78
2023/12/17 01:01:47;;;;;;;330.80;309.35;;;8.30;99.90;;;;;;12407600;28;20475;-82
2023/12/17 01:07:50;;;;;;;334.45;312.90;;;8.30;99.90;;;;;;12438122;28;20052;-83
2023/12/17 01:13:52;;;;;;;316.35;296.08;;;8.20;99.90;;;;;;12401336;28;20141;-84
2023/12/17 01:19:54;;;;;;;322.30;301.95;;;8.20;99.90;;;;;;12399336;28;20050;-84
2023/12/17 01:25:57;;;;;;;319.58;299.58;;;8.30;99.90;;;;;;12411593;28;20488;-82
2023/12/17 01:31:59;;;;;;;309.55;290.05;;;8.30;99.90;;;;;;12396190;28;20069;-84
2023/12/17 01:38:01;;;;;;;315.20;295.52;;;8.30;99.90;;;;;;12400711;28;20484;-86
2023/12/17 01:44:03;;;;;;;317.65;297.40;;;8.30;99.90;;;;;;12399197;28;20053;-83
2023/12/17 01:50:06;;;;;;;310.92;291.15;;;8.30;99.90;;;;;;12392340;28;20042;-83
2023/12/17 01:56:11;;;;;;;302.02;283.10;;;8.20;99.90;;;;;;12411242;28;20511;-83
2023/12/17 02:02:13;;;;;;;295.83;276.85;;;8.20;99.90;;;;;;12416343;28;20187;-82
2023/12/17 02:08:15;;;;;;;309.92;290.25;;;8.20;99.90;;;;;;12402582;28;20043;-83
2023/12/17 02:14:17;;;;;;;295.73;276.85;;;8.30;99.90;;;;;;12410610;28;20049;-83
2023/12/17 02:20:19;;;;;;;295.08;276.30;;;8.20;99.90;;;;;;12408780;28;20042;-82
2023/12/17 02:26:22;;;;;;;291.63;272.90;;;8.20;99.90;;;;;;12444688;28;20049;-83
2023/12/17 02:32:24;;;;;;;278.05;260.20;;;8.20;99.90;;;;;;12428852;28;20049;-84
2023/12/17 02:38:26;;;;;;;279.00;260.73;;;8.20;99.90;;;;;;12422603;28;20053;-84
2023/12/17 02:44:28;;;;;;;272.20;254.88;;;8.20;99.90;;;;;;12385910;28;20046;-84
2023/12/17 02:50:30;;;;;;;274.95;257.33;;;8.20;99.90;;;;;;12405519;28;20042;-83
2023/12/17 02:56:40;;;;;;;281.25;263.45;;;8.20;99.90;;;;;;12407720;28;20054;-83
2023/12/17 03:02:43;;;;;;;258.52;242.02;;;8.20;99.90;;;;;;12396350;28;20061;-83
2023/12/17 03:08:45;;;;;;;262.98;245.98;;;8.30;99.90;;;;;;12410663;28;20053;-82
2023/12/17 03:14:47;;;;;;;248.25;231.95;;;8.30;99.90;;;;;;12429377;28;20051;-83
2023/12/17 03:20:49;;;;;;;241.75;225.80;;;8.40;99.90;;;;;;12384295;28;20046;-82
2023/12/17 03:26:51;;;;;;;225.23;210.40;;;8.30;99.90;;;;;;12393495;28;20054;-83
2023/12/17 03:32:53;;;;;;;232.32;217.02;;;8.50;99.90;;;;;;12385145;28;20094;-83
2023/12/17 03:38:56;;;;;;;233.23;218.23;;;8.50;99.90;;;;;;12417165;28;20054;-83
2023/12/17 03:44:59;;;;;;;242.85;227.18;;;8.60;99.90;;;;;;12399179;28;20176;-83
2023/12/17 03:51:01;;;;;;;241.70;225.75;;;8.40;99.90;;;;;;12401296;28;20317;-82
2023/12/17 03:57:04;;;;;;;221.95;207.45;;;8.40;99.90;;;;;;12425551;28;20084;-84
2023/12/17 04:03:06;;;;;;;209.75;195.73;;;8.40;99.90;;;;;;12403105;28;20050;-83
2023/12/17 04:09:10;;;;;;;209.68;195.75;;;8.40;99.90;;;;;;12400071;28;20054;-82
2023/12/17 04:15:12;;;;;;;219.30;204.63;;;8.40;99.90;;;;;;12434288;28;20050;-85
2023/12/17 04:21:14;;;;;;;199.07;185.40;;;8.40;99.90;;;;;;12398522;28;20526;-84
2023/12/17 04:27:16;;;;;;;201.10;187.60;;;8.50;99.90;;;;;;12421465;28;20033;-82
2023/12/17 04:33:18;;;;;;;202.73;188.95;;;8.60;99.90;;;;;;12411524;28;20050;-82
2023/12/17 04:39:20;;;;;;;200.90;187.48;;;8.60;99.90;;;;;;12394433;28;20050;-83
2023/12/17 04:45:22;;;;;;;203.85;190.18;;;8.50;99.90;;;;;;12401578;28;20183;-83
2023/12/17 04:51:25;;;;;;;193.60;180.45;;;8.40;99.90;;;;;;12416286;28;20053;-82
2023/12/17 04:57:28;;;;;;;201.27;187.63;;;8.50;99.90;;;;;;12436130;28;20059;-83
2023/12/17 05:03:31;;;;;;;192.90;179.70;;;8.40;99.90;;;;;;12412459;28;20057;-82
2023/12/17 05:09:33;;;;;;;190.00;176.88;;;8.40;99.90;;;;;;12396975;28;20045;-82
2023/12/17 05:15:35;;;;;;;182.50;169.70;;;8.50;99.90;;;;;;12407940;28;20042;-84
2023/12/17 05:21:38;;;;;;;165.05;153.45;;;8.60;99.90;;;;;;12403644;28;20045;-84
2023/12/17 05:27:40;;;;;;;166.52;154.63;;;8.60;99.90;;;;;;12392869;28;20057;-84
2023/12/17 05:33:46;;;;;;;172.95;160.80;;;8.60;99.90;;;;;;12402345;28;20057;-83
2023/12/17 05:39:48;;;;;;;172.27;159.93;;;8.60;99.90;;;;;;12385746;28;20082;-85
2023/12/17 05:45:50;;;;;;;174.52;162.07;;;8.60;99.90;;;;;;12400288;28;20480;-81
2023/12/17 05:51:59;;;;;;;163.55;151.70;;;8.60;99.90;;;;;;12412785;28;20049;-80
2023/12/17 05:58:01;;;;;;;171.98;159.45;;;8.60;99.90;;;;;;12403654;28;20484;-80
2023/12/17 06:04:03;;;;;;;177.50;164.75;;;8.70;99.90;;;;;;12403713;28;20092;-80
2023/12/17 06:10:06;;;;;;;191.07;177.60;;;8.60;99.90;;;;;;12386687;28;20046;-82
2023/12/17 06:16:09;;;;;;;173.27;160.88;;;8.50;99.90;;;;;;12428959;28;20086;-80
2023/12/17 06:22:15;;;;;;;185.57;172.32;;;8.50;99.90;;;;;;12394795;28;20108;-80
2023/12/17 06:28:17;;;;;;;178.15;165.43;;;8.50;99.90;;;;;;12397926;28;20083;-81
2023/12/17 06:34:19;;;;;;;185.95;172.45;;;8.50;99.90;;;;;;12391071;28;20443;-81
2023/12/17 06:40:21;;;;;;;183.68;170.75;;;8.40;99.90;;;;;;12418443;28;20754;-79
2023/12/17 06:46:23;;;;;;;187.23;173.73;;;8.40;99.90;;;;;;12446924;28;20077;-80
2023/12/17 06:52:25;;;;;;;189.18;175.80;;;8.50;99.90;;;;;;12418711;28;20053;-82
2023/12/17 06:58:27;;;;;;;191.77;178.40;;;8.40;99.90;;;;;;12387462;28;20054;-81
2023/12/17 07:04:29;;;;;;;192.23;178.70;;;8.30;99.90;;;;;;12391037;28;20051;-81
2023/12/17 07:10:32;;;;;;;181.25;168.27;;;8.30;99.90;;;;;;12389843;28;20058;-82
2023/12/17 07:16:35;;;;;;;162.50;150.52;;;8.40;99.90;;;;;;12397821;28;20411;-81
2023/12/17 07:22:38;;;;;;;178.38;165.70;;;8.40;99.90;;;;;;12388510;28;20057;-81
2023/12/17 07:28:40;;;;;;;166.50;154.50;;;8.40;99.90;;;;;;12403946;28;20091;-82
2023/12/17 07:34:42;;;;;;;172.98;160.52;;;8.40;99.90;;;;;;12407104;28;20054;-79
2023/12/17 07:40:44;;;;;;;173.68;161.40;;;8.30;99.90;;;;;;12391052;28;20062;-81
2023/12/17 07:46:46;;;;;;;165.77;153.48;;;8.40;99.90;;;;;;12396678;28;20046;-80
2023/12/17 07:52:48;;;;;;;178.80;165.57;;;8.40;99.90;;;;;;12408850;28;20050;-81
2023/12/17 07:58:50;;;;;;;174.13;161.50;;;8.30;99.90;;;;;;12397823;28;20054;-83
2023/12/17 08:04:52;;;;;;;162.20;150.18;;;8.30;99.90;;;;;;12412236;28;20407;-84
2023/12/17 08:10:54;;;;;;;168.82;156.57;;;8.30;99.90;;;;;;12405790;28;20049;-83
2023/12/17 08:16:56;;;;;;;157.70;146.02;;;8.40;99.90;;;;;;12409694;28;20046;-81
2023/12/17 08:22:58;;;;;;;170.95;158.50;;;8.40;99.90;;;;;;12402263;28;20103;-82
2023/12/17 08:29:00;;;;;;;163.38;151.50;;;8.30;99.90;;;;;;12400117;28;20388;-82
2023/12/17 08:35:02;;;;;;;171.95;159.60;;;8.30;99.90;;;;;;12403690;28;20079;-82
2023/12/17 08:41:05;;;;;;;154.35;143.05;;;8.30;99.90;;;;;;12381528;28;20081;-83
2023/12/17 08:47:08;;;;;;;161.02;149.13;;;8.20;99.90;;;;;;12404094;28;20038;-82
2023/12/17 08:53:10;;;;;;;157.35;145.93;;;8.20;99.90;;;;;;12399220;28;20041;-81
2023/12/17 08:59:12;;;;;;;155.15;143.95;;;8.20;99.90;;;;;;12420526;28;20061;-82
2023/12/17 09:05:17;;;;;;;158.85;147.38;;;8.30;99.90;;;;;;12397904;28;20053;-82
2023/12/17 09:11:19;;;;;;;141.18;130.50;;;8.20;99.90;;;;;;12401038;28;20042;-85
2023/12/17 09:17:21;;;;;;;140.55;130.00;;;8.20;99.90;;;;;;12396703;28;20518;-85
2023/12/17 09:23:23;;;;;;;140.85;130.40;;;8.20;99.90;;;;;;12393385;28;20078;-86
2023/12/17 09:29:25;;;;;;;141.65;131.48;;;8.10;99.90;;;;;;12399058;28;20050;-84
2023/12/17 09:35:27;;;;;;;140.90;130.60;;;8.10;99.90;;;;;;12416463;28;20103;-82
2023/12/17 09:41:29;;;;;;;141.95;131.57;;;8.20;99.90;;;;;;12411912;28;20503;-85
2023/12/17 09:47:32;;;;;;;134.68;124.63;;;8.10;99.90;;;;;;12459543;28;20053;-84
2023/12/17 09:53:35;;;;;;;138.43;128.43;;;8.00;99.90;;;;;;12397276;28;20046;-85
2023/12/17 09:59:37;;;;;;;129.73;119.97;;;8.10;99.90;;;;;;12418122;28;20538;-84
2023/12/17 10:05:39;;;;;;;121.95;112.72;;;8.10;99.90;;;;;;12399969;28;20050;-85
2023/12/17 10:11:42;;;;;;;127.78;118.45;;;8.20;99.90;;;;;;12401040;28;20088;-85
2023/12/17 10:17:47;;;;;;;132.07;122.45;;;8.20;99.90;;;;;;12413201;28;20062;-85
2023/12/17 10:23:50;;;;;;;125.45;115.85;;;8.30;99.90;;;;;;12425212;28;20054;-81
2023/12/17 10:29:53;;;;;;;121.53;112.40;;;8.30;99.90;;;;;;12411526;28;20431;-80
2023/12/17 10:35:55;;;;;;;119.35;110.32;;;8.40;99.90;;;;;;12423319;28;20143;-80
2023/12/17 10:41:58;;;;;;;120.50;111.60;;;8.30;99.90;;;;;;12425129;28;20056;-78
2023/12/17 10:48:02;;;;;;;132.38;122.95;;;8.30;99.90;;;;;;12441272;28;20047;-78
2023/12/17 10:54:06;;;;;;;132.20;122.75;;;8.30;99.90;;;;;;12426375;28;20115;-80
2023/12/17 11:00:09;;;;;;;128.27;119.00;;;8.30;99.90;;;;;;12433872;28;20046;-80
2023/12/17 11:06:12;;;;;;;127.80;118.75;;;8.20;99.90;;;;;;12430085;28;20046;-80
2023/12/17 11:12:16;;;;;;;125.97;116.88;;;8.20;99.90;;;;;;12428222;28;20515;-81
2023/12/17 11:18:19;;;;;;;;;;;8.20;99.90;;;;;;12415618;28;20046;-81
2023/12/17 11:24:22;;;;;;;114.60;106.05;;;8.20;99.90;;;;;;12439571;28;20381;-79
2023/12/17 11:30:31;;;;;;;118.43;109.82;;;8.20;99.90;;;;;;12418182;28;20057;-78
2023/12/17 11:36:34;;;;;;;109.95;101.75;;;8.20;99.90;;;;;;12442033;28;20053;-81
2023/12/17 11:42:40;;;;;;;108.90;100.65;;;8.40;99.90;;;;;;12415260;28;20770;-82
2023/12/17 11:48:42;;;;;;;110.55;102.57;;;8.30;99.90;;;;;;12429378;28;20082;-81
2023/12/17 11:54:45;;;;;;;112.25;103.93;;;8.20;99.90;;;;;;12442154;28;20426;-83
2023/12/17 12:01:12;;;;;;;114.85;106.38;;;8.20;99.90;;;;;;12406576;28;20054;-82
2023/12/17 12:07:18;;;;;;;110.25;102.13;;;8.20;99.90;;;;;;12408889;28;20050;-82
2023/12/17 12:13:20;;;;;;;112.85;104.60;;;8.30;99.90;;;;;;12426229;28;20050;-83
2023/12/17 12:19:22;;;;;;;111.07;103.18;;;8.00;99.90;;;;;;12413036;28;20161;-83
2023/12/17 12:25:32;;;;;;;106.75;99.25;;;7.90;99.90;;;;;;12401587;28;20053;-83
2023/12/17 12:31:34;;;;;;;105.93;98.35;;;8.00;99.90;;;;;;12392572;28;20133;-83
2023/12/17 12:37:38;;;;;;;114.40;106.20;;;8.00;99.90;;;;;;12390738;28;20061;-82
2023/12/17 12:43:40;;;;;;;112.78;104.68;;;8.00;99.90;;;;;;12417412;28;20923;-81
2023/12/17 12:49:42;;;;;;;114.95;106.35;;;7.90;99.90;;;;;;12423272;28;20108;-81
2023/12/17 12:55:46;;;;;;;110.20;102.13;;;7.90;99.90;;;;;;12399727;28;20054;-82
2023/12/17 13:01:48;;;;;;;109.95;102.00;;;7.90;99.90;;;;;;12415297;28;20061;-81
2023/12/17 13:07:50;;;;;;;114.70;106.43;;;8.10;99.90;;;;;;12412835;28;20056;-82
2023/12/17 13:13:52;;;;;;;111.47;103.38;;;8.00;99.90;;;;;;12405539;28;20046;-83
2023/12/17 13:19:54;;;;;;;116.18;107.47;;;8.20;99.90;;;;;;12389137;28;20057;-83
2023/12/17 13:25:56;;;;;;;123.78;114.90;;;7.90;99.90;;;;;;12400760;28;20098;-82
2023/12/17 13:32:11;;;;;;;120.75;112.05;;;7.80;99.90;;;;;;12403401;28;20054;-81
2023/12/17 13:38:13;;;;;;;120.53;111.88;;;7.80;99.90;;;;;;12403268;28;20058;-82
2023/12/17 13:44:15;;;;;;;121.35;112.72;;;7.80;99.90;;;;;;12397601;28;20050;-81
2023/12/17 13:50:19;;;;;;;121.72;112.93;;;7.70;99.90;;;;;;12405408;28;20161;-81
2023/12/17 13:56:21;;;;;;;120.15;111.50;;;7.80;99.90;;;;;;12443594;28;20054;-82
2023/12/17 14:02:28;;;;;;;121.38;112.47;;;7.80;99.90;;;;;;12442303;28;20042;-79
2023/12/17 14:08:30;;;;;;;121.32;112.18;;;7.70;99.90;;;;;;12425928;28;20492;-79
2023/12/17 14:14:34;;;;;;;114.35;105.45;;;7.60;99.90;;;;;;12467541;28;20049;-83
2023/12/17 14:20:37;;;;;;;114.60;105.77;;;7.60;99.90;;;;;;12485894;28;20075;-81
2023/12/17 14:26:40;;;;;;;114.18;105.47;;;7.50;99.90;;;;;;12449333;28;20056;-83
2023/12/17 14:32:42;;;;;;;117.88;108.82;;;7.50;99.90;;;;;;12469981;28;20061;-82
2023/12/17 14:38:44;;;;;;;113.20;104.22;;;7.60;99.90;;;;;;12438942;28;20030;-80
2023/12/17 14:44:46;;;;;;;120.63;111.35;;;7.60;99.90;;;;;;12430563;28;20057;-82
2023/12/17 14:50:48;;;;;;;124.45;114.43;;;7.50;99.90;;;;;;12417831;28;20416;-82
2023/12/17 14:56:50;;;;;;;125.68;115.82;;;7.40;99.90;;;;;;12398995;28;20062;-83
2023/12/17 15:02:53;;;;;;;124.72;115.05;;;7.40;99.90;;;;;;12404164;28;20050;-82
2023/12/17 15:08:57;;;;;;;122.22;112.53;;;7.30;99.90;;;;;;12424113;28;20050;-82
2023/12/17 15:15:00;;;;;;;124.35;114.82;;;7.10;99.90;;;;;;12403512;28;20387;-83
2023/12/17 15:21:03;;;;;;;120.95;111.10;;;7.10;99.90;;;;;;12425881;28;20061;-78
2023/12/17 15:27:05;;;;;;;125.43;115.75;;;7.00;99.90;;;;;;12462178;28;20043;-79
2023/12/17 15:33:07;;;;;;;115.47;106.00;;;7.00;99.90;;;;;;12439266;28;20050;-77
2023/12/17 15:39:11;;;;;;;118.40;109.10;;;6.90;99.90;;;;;;12434410;28;20054;-79
2023/12/17 15:45:13;;;;;;;122.18;112.57;;;6.90;99.90;;;;;;12443701;28;20050;-79
2023/12/17 15:51:22;;;;;;;119.05;109.53;;;6.90;99.90;;;;;;12415565;28;20046;-78
2023/12/17 15:57:27;;;;;;;119.35;109.75;;;6.80;99.90;;;;;;12446541;28;20061;-83
2023/12/17 16:03:29;;;;;;;117.75;108.32;;;6.70;99.90;;;;;;12422409;28;20049;-78
2023/12/17 16:09:32;;;;;;;124.93;115.20;;;6.70;99.90;;;;;;12418199;28;20046;-78
2023/12/17 16:15:36;;;;;;;122.13;112.40;;;6.60;99.90;;;;;;12446000;28;20122;-78
2023/12/17 16:21:39;;;;;;;124.90;114.97;;;6.60;99.90;;;;;;12442347;28;20080;-78
2023/12/17 16:27:41;;;;;;;122.40;112.82;;;6.50;99.90;;;;;;12436332;28;20034;-78
2023/12/17 16:33:44;;;;;;;125.72;116.07;;;6.50;99.90;;;;;;12423173;28;20064;-83
2023/12/17 16:39:46;;;;;;;127.63;117.55;;;6.50;99.90;;;;;;12408545;28;20573;-82
2023/12/17 16:45:48;;;;;;;125.15;115.13;;;6.50;99.90;;;;;;12414589;28;20050;-82
2023/12/17 16:51:51;;;;;;;125.45;115.43;;;6.40;99.90;;;;;;12425473;28;20040;-83
2023/12/17 16:57:53;;;;;;;126.15;116.00;;;6.30;99.90;;;;;;12394196;28;20065;-84
2023/12/17 17:03:55;;;;;;;124.95;115.03;;;6.30;99.90;;;;;;12415980;28;20065;-85
2023/12/17 17:09:57;;;;;;;120.32;110.55;;;6.20;99.90;;;;;;12411469;28;20057;-82
2023/12/17 17:15:59;;;;;;;127.45;117.35;;;6.30;99.90;;;;;;12392774;28;20046;-84
2023/12/17 17:22:01;;;;;;;122.43;112.95;;;6.20;99.90;;;;;;12416181;28;20060;-85
2023/12/17 17:28:03;;;;;;;119.50;109.85;;;6.20;99.90;;;;;;12403363;28;20050;-83
2023/12/17 17:34:05;;;;;;;124.60;114.57;;;6.20;99.90;;;;;;12412836;28;20069;-84
2023/12/17 17:40:10;;;;;;;126.57;116.50;;;6.30;99.90;;;;;;12403681;28;20103;-85
2023/12/17 17:46:13;;;;;;;132.15;121.57;;;6.30;99.90;;;;;;12416897;28;20491;-85
2023/12/17 17:52:15;;;;;;;130.13;120.15;;;6.30;99.90;;;;;;12412178;28;20095;-85
2023/12/17 17:58:17;;;;;;;130.15;119.93;;;6.20;99.90;;;;;;12409786;28;20058;-82
2023/12/17 18:04:20;;;;;;;126.00;115.63;;;6.30;99.90;;;;;;12385874;28;20132;-85
2023/12/17 18:10:22;;;;;;;125.22;115.68;;;6.30;99.90;;;;;;12390493;28;20054;-84
2023/12/17 18:16:24;;;;;;;127.40;117.95;;;6.30;99.90;;;;;;12426120;28;20042;-85
2023/12/17 18:22:27;;;;;;;132.35;122.18;;;6.40;99.90;;;;;;12392012;28;20058;-85
2023/12/17 18:28:33;;;;;;;128.32;118.53;;;6.40;99.90;;;;;;12396883;28;20774;-84
2023/12/17 18:34:35;;;;;;;129.35;119.70;;;6.50;99.90;;;;;;12381030;28;20096;-83
2023/12/17 18:40:38;;;;;;;132.82;123.00;;;6.60;99.90;;;;;;12386068;28;20059;-84
2023/12/17 18:46:40;;;;;;;134.15;124.47;;;6.70;99.90;;;;;;12390755;28;20062;-85
2023/12/17 18:52:42;;;;;;;127.75;118.25;;;6.70;99.90;;;;;;12408902;28;20046;-79
2023/12/17 18:58:44;;;;;;;133.50;123.75;;;6.90;99.90;;;;;;12413263;28;20090;-78
2023/12/17 19:04:46;;;;;;;137.55;127.60;;;6.90;99.90;;;;;;12414705;28;20058;-80
2023/12/17 19:10:48;;;;;;;129.48;120.15;;;7.00;99.90;;;;;;12407042;28;20046;-79
2023/12/17 19:16:51;;;;;;;130.02;120.97;;;7.10;99.90;;;;;;12441884;28;20047;-79
2023/12/17 19:22:53;;;;;;;128.70;119.57;;;7.10;99.90;;;;;;12418225;28;20133;-78
2023/12/17 19:28:55;;;;;;;137.10;127.53;;;7.20;99.90;;;;;;12418064;28;20058;-78
2023/12/17 19:34:57;;;;;;;129.60;120.00;;;7.20;99.90;;;;;;12456895;28;20050;-81
2023/12/17 19:40:59;;;;;;;127.43;118.18;;;7.30;99.90;;;;;;12428583;28;20058;-78
2023/12/17 19:47:02;;;;;;;132.80;122.82;;;7.30;99.90;;;;;;12450302;28;20919;-79
2023/12/17 19:53:04;;;;;;;129.57;120.18;;;7.20;99.90;;;;;;12457479;28;20050;-78
2023/12/17 19:59:06;;;;;;;126.90;117.75;;;7.20;99.90;;;;;;12416638;28;20054;-79
2023/12/17 20:05:09;;;;;;;118.35;109.10;;;7.20;99.90;;;;;;12411323;28;20050;-79
2023/12/17 20:11:11;;;;;;;119.63;110.38;;;7.20;99.90;;;;;;12434105;28;20061;-76
2023/12/17 20:17:13;;;;;;;123.38;114.35;;;7.20;99.90;;;;;;12423464;28;20073;-77
2023/12/17 20:23:15;;;;;;;122.70;113.78;;;7.20;99.90;;;;;;12424459;28;20589;-77
2023/12/17 20:29:17;;;;;;;122.72;113.63;;;7.20;99.90;;;;;;12425763;28;20491;-76
2023/12/17 20:35:19;;;;;;;122.57;113.60;;;7.20;99.90;;;;;;12445739;28;20066;-78
2023/12/17 20:41:21;;;;;;;127.90;118.60;;;7.30;99.90;;;;;;12437274;28;20077;-77
2023/12/17 20:47:23;;;;;;;131.07;121.60;;;7.30;99.90;;;;;;12444262;28;20046;-76
2023/12/17 20:53:25;;;;;;;131.02;121.60;;;7.30;99.90;;;;;;12442026;28;20430;-79
2023/12/17 20:59:27;;;;;;;126.90;117.63;;;7.40;99.90;;;;;;12400352;28;20070;-77
2023/12/17 21:05:31;;;;;;;121.55;112.50;;;7.40;99.90;;;;;;12432377;28;20054;-80
2023/12/17 21:11:33;;;;;;;125.55;116.10;;;7.50;99.90;;;;;;12453125;28;20053;-81
2023/12/17 21:17:35;;;;;;;125.05;116.25;;;7.60;99.90;;;;;;12385404;28;20072;-83
2023/12/17 21:23:38;;;;;;;114.70;105.57;;;7.60;99.90;;;;;;12401904;28;20074;-84
2023/12/17 21:29:40;;;;;;;118.00;108.60;;;7.60;99.90;;;;;;12381321;28;20050;-84
2023/12/17 21:35:42;;;;;;;120.65;111.10;;;7.60;99.90;;;;;;12408980;28;20662;-84
2023/12/17 21:41:44;;;;;;;118.45;109.03;;;7.50;99.90;;;;;;12414110;28;20512;-84
2023/12/17 21:47:46;;;;;;;121.55;112.15;;;7.50;99.90;;;;;;12438026;28;20046;-85
2023/12/17 21:53:48;;;;;;;116.85;107.80;;;7.40;99.90;;;;;;12418883;28;20062;-81
2023/12/17 21:59:50;;;;;;;122.47;113.18;;;7.50;99.90;;;;;;12324922;28;20496;-83
2023/12/17 22:05:53;;;;;;;122.20;113.00;;;7.40;99.90;;;;;;12320634;28;20540;-81
2023/12/17 22:11:55;;;;;;;124.32;114.88;;;7.40;99.90;;;;;;12317933;28;20047;-83
2023/12/17 22:17:57;;;;;;;121.15;112.20;;;7.40;99.90;;;;;;12319506;28;20063;-83
2023/12/17 22:23:59;;;;;;;126.63;117.22;;;7.40;99.90;;;;;;12332811;28;20159;-83
2023/12/17 22:30:03;;;;;;;128.82;119.65;;;7.40;99.90;;;;;;12345553;28;20051;-83
2023/12/17 22:36:06;;;;;;;125.85;116.65;;;7.40;99.90;;;;;;12320459;28;20043;-83
2023/12/17 22:42:09;;;;;;;123.00;113.90;;;7.40;99.90;;;;;;12316918;28;20059;-83
2023/12/17 22:48:13;;;;;;;127.50;118.18;;;7.40;99.90;;;;;;12334961;28;20070;-83
2023/12/17 22:54:15;;;;;;;119.85;110.50;;;7.40;99.90;;;;;;12370065;28;20047;-83
2023/12/17 23:00:18;;;;;;;124.07;114.72;;;7.50;99.90;;;;;;12380962;28;20054;-84
2023/12/17 23:06:20;;;;;;;130.32;120.53;;;7.40;99.90;;;;;;12374345;28;20077;-83
2023/12/17 23:12:23;;;;;;;130.80;121.00;;;7.40;99.90;;;;;;12371244;28;20054;-83
2023/12/17 23:18:25;;;;;;;120.53;111.43;;;7.20;99.90;;;;;;12380523;28;20061;-83
2023/12/17 23:24:27;;;;;;;120.07;110.95;;;7.30;99.90;;;;;;12368264;28;20059;-83
2023/12/17 23:30:29;;;;;;;103.68;95.88;;;7.20;99.90;;;;;;12378326;28;20557;-84
2023/12/17 23:36:31;;;;;;;110.60;102.40;;;7.40;99.90;;;;;;12376291;28;20058;-79
2023/12/17 23:42:33;;;;;;;106.90;99.22;;;7.20;99.90;;;;;;12384972;28;20586;-80
2023/12/17 23:48:36;;;;;;;113.45;105.25;;;7.30;99.90;;;;;;12383948;28;20093;-78
2023/12/17 23:54:38;;;;;;;114.23;105.90;;;7.10;99.90;;;;;;12407888;28;20046;-80
